sensor_id;sensor_type;location;lat;lon;timestamp;P1;durP1;ratioP1;P2;durP2;ratioP2
67514;SDS011;60646;55.802;37.032;2023-08-21T00:00:21;2.55;;;1.25;;
67514;SDS011;60646;55.802;37.032;2023-08-21T00:02:47;2.20;;;1.40;;
67514;SDS011;60646;55.802;37.032;2023-08-21T00:05:13;1.48;;;1.15;;
67514;SDS011;60646;55.802;37.032;2023-08-21T00:07:38;3.80;;;1.45;;
67514;SDS011;60646;55.802;37.032;2023-08-21T00:10:04;1.52;;;1.25;;
67514;SDS011;60646;55.802;37.032;2023-08-21T00:12:30;1.77;;;1.50;;
67514;SDS011;60646;55.802;37.032;2023-08-21T00:15:15;3.42;;;1.45;;
67514;SDS011;60646;55.802;37.032;2023-08-21T00:17:40;2.95;;;1.42;;
67514;SDS011;60646;55.802;37.032;2023-08-21T00:20:06;1.80;;;1.45;;
67514;SDS011;60646;55.802;37.032;2023-08-21T00:22:35;4.20;;;1.30;;
67514;SDS011;60646;55.802;37.032;2023-08-21T00:25:01;2.28;;;1.50;;
67514;SDS011;60646;55.802;37.032;2023-08-21T00:27:46;2.28;;;1.52;;
67514;SDS011;60646;55.802;37.032;2023-08-21T00:30:12;3.78;;;1.35;;
67514;SDS011;60646;55.802;37.032;2023-08-21T00:32:41;1.73;;;1.33;;
67514;SDS011;60646;55.802;37.032;2023-08-21T00:35:07;2.20;;;1.50;;
67514;SDS011;60646;55.802;37.032;2023-08-21T00:37:33;12.32;;;1.90;;
67514;SDS011;60646;55.802;37.032;2023-08-21T00:39:59;3.28;;;1.48;;
67514;SDS011;60646;55.802;37.032;2023-08-21T00:42:25;2.65;;;1.40;;
67514;SDS011;60646;55.802;37.032;2023-08-21T00:44:51;1.90;;;1.58;;
67514;SDS011;60646;55.802;37.032;2023-08-21T00:47:17;2.08;;;1.50;;
67514;SDS011;60646;55.802;37.032;2023-08-21T00:49:45;1.90;;;1.48;;
67514;SDS011;60646;55.802;37.032;2023-08-21T00:52:12;1.58;;;1.27;;
67514;SDS011;60646;55.802;37.032;2023-08-21T00:54:40;2.53;;;1.50;;
67514;SDS011;60646;55.802;37.032;2023-08-21T00:57:06;2.20;;;1.35;;
67514;SDS011;60646;55.802;37.032;2023-08-21T00:59:32;3.60;;;1.35;;
67514;SDS011;60646;55.802;37.032;2023-08-21T01:01:58;2.25;;;1.63;;
67514;SDS011;60646;55.802;37.032;2023-08-21T01:04:24;1.70;;;1.30;;
67514;SDS011;60646;55.802;37.032;2023-08-21T01:06:50;1.45;;;1.30;;
67514;SDS011;60646;55.802;37.032;2023-08-21T01:17:15;2.00;;;1.38;;
67514;SDS011;60646;55.802;37.032;2023-08-21T01:19:43;2.60;;;1.27;;
67514;SDS011;60646;55.802;37.032;2023-08-21T01:22:11;3.13;;;1.40;;
67514;SDS011;60646;55.802;37.032;2023-08-21T01:24:37;2.33;;;1.23;;
67514;SDS011;60646;55.802;37.032;2023-08-21T01:27:03;1.52;;;1.08;;
67514;SDS011;60646;55.802;37.032;2023-08-21T01:29:29;2.15;;;1.30;;
67514;SDS011;60646;55.802;37.032;2023-08-21T01:32:01;1.92;;;1.27;;
67514;SDS011;60646;55.802;37.032;2023-08-21T01:34:29;3.17;;;1.48;;
67514;SDS011;60646;55.802;37.032;2023-08-21T01:36:59;2.35;;;1.20;;
67514;SDS011;60646;55.802;37.032;2023-08-21T01:39:25;1.65;;;1.40;;
67514;SDS011;60646;55.802;37.032;2023-08-21T01:41:52;2.70;;;1.45;;
67514;SDS011;60646;55.802;37.032;2023-08-21T01:44:17;5.00;;;1.13;;
67514;SDS011;60646;55.802;37.032;2023-08-21T01:46:43;3.28;;;1.20;;
67514;SDS011;60646;55.802;37.032;2023-08-21T01:49:09;3.22;;;1.10;;
67514;SDS011;60646;55.802;37.032;2023-08-21T01:51:35;1.60;;;1.20;;
67514;SDS011;60646;55.802;37.032;2023-08-21T01:54:01;1.77;;;1.33;;
67514;SDS011;60646;55.802;37.032;2023-08-21T01:56:27;1.38;;;1.17;;
67514;SDS011;60646;55.802;37.032;2023-08-21T01:58:53;1.50;;;1.17;;
67514;SDS011;60646;55.802;37.032;2023-08-21T02:01:19;2.42;;;1.40;;
67514;SDS011;60646;55.802;37.032;2023-08-21T02:03:45;4.13;;;1.45;;
67514;SDS011;60646;55.802;37.032;2023-08-21T02:06:12;1.77;;;1.33;;
67514;SDS011;60646;55.802;37.032;2023-08-21T02:08:38;3.13;;;1.50;;
67514;SDS011;60646;55.802;37.032;2023-08-21T02:11:04;2.15;;;1.40;;
67514;SDS011;60646;55.802;37.032;2023-08-21T02:13:30;1.90;;;1.10;;
67514;SDS011;60646;55.802;37.032;2023-08-21T02:15:58;2.38;;;1.80;;
67514;SDS011;60646;55.802;37.032;2023-08-21T02:18:44;1.95;;;1.30;;
67514;SDS011;60646;55.802;37.032;2023-08-21T02:21:09;2.45;;;1.60;;
67514;SDS011;60646;55.802;37.032;2023-08-21T02:23:35;3.10;;;1.60;;
67514;SDS011;60646;55.802;37.032;2023-08-21T02:26:01;2.25;;;1.45;;
67514;SDS011;60646;55.802;37.032;2023-08-21T02:28:27;2.72;;;1.77;;
67514;SDS011;60646;55.802;37.032;2023-08-21T02:30:53;2.28;;;1.60;;
67514;SDS011;60646;55.802;37.032;2023-08-21T02:33:18;3.13;;;1.40;;
67514;SDS011;60646;55.802;37.032;2023-08-21T02:35:44;1.77;;;1.30;;
67514;SDS011;60646;55.802;37.032;2023-08-21T02:38:10;4.28;;;1.50;;
67514;SDS011;60646;55.802;37.032;2023-08-21T02:40:36;3.38;;;1.38;;
67514;SDS011;60646;55.802;37.032;2023-08-21T02:43:02;2.28;;;1.17;;
67514;SDS011;60646;55.802;37.032;2023-08-21T02:45:28;2.50;;;1.58;;
67514;SDS011;60646;55.802;37.032;2023-08-21T02:47:57;2.88;;;1.30;;
67514;SDS011;60646;55.802;37.032;2023-08-21T02:50:23;2.30;;;1.50;;
67514;SDS011;60646;55.802;37.032;2023-08-21T02:52:49;2.55;;;1.35;;
67514;SDS011;60646;55.802;37.032;2023-08-21T02:55:15;1.50;;;1.27;;
67514;SDS011;60646;55.802;37.032;2023-08-21T02:57:41;2.38;;;1.38;;
67514;SDS011;60646;55.802;37.032;2023-08-21T03:00:09;2.88;;;1.60;;
67514;SDS011;60646;55.802;37.032;2023-08-21T03:02:36;4.22;;;1.50;;
67514;SDS011;60646;55.802;37.032;2023-08-21T03:05:03;2.40;;;1.70;;
67514;SDS011;60646;55.802;37.032;2023-08-21T03:07:32;3.92;;;1.40;;
67514;SDS011;60646;55.802;37.032;2023-08-21T03:09:57;3.88;;;1.67;;
67514;SDS011;60646;55.802;37.032;2023-08-21T03:12:23;2.75;;;1.50;;
67514;SDS011;60646;55.802;37.032;2023-08-21T03:14:49;2.53;;;1.40;;
67514;SDS011;60646;55.802;37.032;2023-08-21T03:17:15;2.60;;;1.50;;
67514;SDS011;60646;55.802;37.032;2023-08-21T03:19:40;2.35;;;1.55;;
67514;SDS011;60646;55.802;37.032;2023-08-21T03:22:06;2.50;;;1.50;;
67514;SDS011;60646;55.802;37.032;2023-08-21T03:24:32;2.55;;;1.45;;
67514;SDS011;60646;55.802;37.032;2023-08-21T03:26:58;2.00;;;1.38;;
67514;SDS011;60646;55.802;37.032;2023-08-21T03:29:24;2.97;;;1.73;;
67514;SDS011;60646;55.802;37.032;2023-08-21T03:31:52;2.22;;;1.35;;
67514;SDS011;60646;55.802;37.032;2023-08-21T03:34:18;4.10;;;1.48;;
67514;SDS011;60646;55.802;37.032;2023-08-21T03:36:46;2.42;;;1.60;;
67514;SDS011;60646;55.802;37.032;2023-08-21T03:39:12;2.33;;;1.45;;
67514;SDS011;60646;55.802;37.032;2023-08-21T03:41:42;5.93;;;2.10;;
67514;SDS011;60646;55.802;37.032;2023-08-21T03:44:08;4.10;;;2.00;;
67514;SDS011;60646;55.802;37.032;2023-08-21T03:46:34;6.65;;;3.15;;
67514;SDS011;60646;55.802;37.032;2023-08-21T03:49:00;4.50;;;1.83;;
67514;SDS011;60646;55.802;37.032;2023-08-21T03:51:26;3.20;;;1.42;;
67514;SDS011;60646;55.802;37.032;2023-08-21T03:53:51;4.03;;;1.63;;
67514;SDS011;60646;55.802;37.032;2023-08-21T03:56:17;3.22;;;1.42;;
67514;SDS011;60646;55.802;37.032;2023-08-21T03:58:44;2.10;;;1.13;;
67514;SDS011;60646;55.802;37.032;2023-08-21T04:01:10;3.17;;;1.77;;
67514;SDS011;60646;55.802;37.032;2023-08-21T04:03:36;2.67;;;1.25;;
67514;SDS011;60646;55.802;37.032;2023-08-21T04:06:02;1.58;;;1.05;;
67514;SDS011;60646;55.802;37.032;2023-08-21T04:08:28;4.70;;;1.35;;
67514;SDS011;60646;55.802;37.032;2023-08-21T04:10:54;3.53;;;1.10;;
67514;SDS011;60646;55.802;37.032;2023-08-21T04:13:24;2.70;;;1.48;;
67514;SDS011;60646;55.802;37.032;2023-08-21T04:15:53;3.35;;;1.23;;
67514;SDS011;60646;55.802;37.032;2023-08-21T04:18:21;2.72;;;1.20;;
67514;SDS011;60646;55.802;37.032;2023-08-21T04:20:49;2.95;;;1.70;;
67514;SDS011;60646;55.802;37.032;2023-08-21T04:23:15;3.60;;;1.65;;
67514;SDS011;60646;55.802;37.032;2023-08-21T04:25:41;3.53;;;1.63;;
67514;SDS011;60646;55.802;37.032;2023-08-21T04:28:08;3.63;;;1.92;;
67514;SDS011;60646;55.802;37.032;2023-08-21T04:30:34;3.13;;;1.75;;
67514;SDS011;60646;55.802;37.032;2023-08-21T04:33:00;3.35;;;1.45;;
67514;SDS011;60646;55.802;37.032;2023-08-21T04:35:27;2.20;;;1.20;;
67514;SDS011;60646;55.802;37.032;2023-08-21T04:37:54;2.05;;;1.00;;
67514;SDS011;60646;55.802;37.032;2023-08-21T04:40:23;1.88;;;1.13;;
67514;SDS011;60646;55.802;37.032;2023-08-21T04:42:50;2.92;;;1.15;;
67514;SDS011;60646;55.802;37.032;2023-08-21T04:45:16;1.88;;;1.00;;
67514;SDS011;60646;55.802;37.032;2023-08-21T04:47:43;1.25;;;0.85;;
67514;SDS011;60646;55.802;37.032;2023-08-21T04:50:09;1.60;;;1.00;;
67514;SDS011;60646;55.802;37.032;2023-08-21T04:52:35;1.38;;;1.08;;
67514;SDS011;60646;55.802;37.032;2023-08-21T04:55:01;2.50;;;1.15;;
67514;SDS011;60646;55.802;37.032;2023-08-21T04:57:30;1.50;;;1.05;;
67514;SDS011;60646;55.802;37.032;2023-08-21T04:59:57;1.73;;;1.00;;
67514;SDS011;60646;55.802;37.032;2023-08-21T05:02:33;2.50;;;1.35;;
67514;SDS011;60646;55.802;37.032;2023-08-21T05:04:59;3.97;;;1.20;;
67514;SDS011;60646;55.802;37.032;2023-08-21T05:07:26;1.15;;;0.80;;
67514;SDS011;60646;55.802;37.032;2023-08-21T05:09:53;3.75;;;1.00;;
67514;SDS011;60646;55.802;37.032;2023-08-21T05:12:20;3.05;;;1.30;;
67514;SDS011;60646;55.802;37.032;2023-08-21T05:14:46;2.58;;;1.00;;
67514;SDS011;60646;55.802;37.032;2023-08-21T05:17:30;1.50;;;0.90;;
67514;SDS011;60646;55.802;37.032;2023-08-21T05:19:57;2.47;;;1.02;;
67514;SDS011;60646;55.802;37.032;2023-08-21T05:22:23;1.05;;;0.90;;
67514;SDS011;60646;55.802;37.032;2023-08-21T05:24:49;5.38;;;1.42;;
67514;SDS011;60646;55.802;37.032;2023-08-21T05:27:15;2.65;;;1.55;;
67514;SDS011;60646;55.802;37.032;2023-08-21T05:29:41;3.03;;;1.80;;
67514;SDS011;60646;55.802;37.032;2023-08-21T05:32:06;3.33;;;1.58;;
67514;SDS011;60646;55.802;37.032;2023-08-21T05:34:34;1.58;;;1.02;;
67514;SDS011;60646;55.802;37.032;2023-08-21T05:37:01;1.00;;;0.85;;
67514;SDS011;60646;55.802;37.032;2023-08-21T05:39:26;1.83;;;1.10;;
67514;SDS011;60646;55.802;37.032;2023-08-21T05:41:52;1.55;;;1.10;;
67514;SDS011;60646;55.802;37.032;2023-08-21T05:44:18;1.30;;;0.90;;
67514;SDS011;60646;55.802;37.032;2023-08-21T05:46:44;1.23;;;0.90;;
67514;SDS011;60646;55.802;37.032;2023-08-21T05:49:10;1.48;;;0.77;;
67514;SDS011;60646;55.802;37.032;2023-08-21T05:51:36;1.25;;;1.02;;
67514;SDS011;60646;55.802;37.032;2023-08-21T05:54:02;1.23;;;0.98;;
67514;SDS011;60646;55.802;37.032;2023-08-21T05:56:28;1.02;;;0.80;;
67514;SDS011;60646;55.802;37.032;2023-08-21T05:58:55;1.08;;;0.90;;
67514;SDS011;60646;55.802;37.032;2023-08-21T06:01:24;1.55;;;0.88;;
67514;SDS011;60646;55.802;37.032;2023-08-21T06:03:50;0.95;;;0.77;;
67514;SDS011;60646;55.802;37.032;2023-08-21T06:06:29;1.20;;;0.80;;
67514;SDS011;60646;55.802;37.032;2023-08-21T06:08:58;2.95;;;1.33;;
67514;SDS011;60646;55.802;37.032;2023-08-21T06:11:23;4.60;;;2.42;;
67514;SDS011;60646;55.802;37.032;2023-08-21T06:13:49;6.20;;;2.80;;
67514;SDS011;60646;55.802;37.032;2023-08-21T06:16:15;5.45;;;2.10;;
67514;SDS011;60646;55.802;37.032;2023-08-21T06:18:46;2.50;;;1.20;;
67514;SDS011;60646;55.802;37.032;2023-08-21T06:21:12;1.83;;;1.20;;
67514;SDS011;60646;55.802;37.032;2023-08-21T06:23:38;1.20;;;0.90;;
67514;SDS011;60646;55.802;37.032;2023-08-21T06:26:04;2.42;;;0.80;;
67514;SDS011;60646;55.802;37.032;2023-08-21T06:28:30;1.38;;;0.95;;
67514;SDS011;60646;55.802;37.032;2023-08-21T06:30:56;1.30;;;0.82;;
67514;SDS011;60646;55.802;37.032;2023-08-21T06:33:29;1.00;;;0.80;;
67514;SDS011;60646;55.802;37.032;2023-08-21T06:35:55;0.88;;;0.73;;
67514;SDS011;60646;55.802;37.032;2023-08-21T06:38:21;5.13;;;1.10;;
67514;SDS011;60646;55.802;37.032;2023-08-21T06:40:47;1.42;;;0.85;;
67514;SDS011;60646;55.802;37.032;2023-08-21T06:43:13;1.45;;;0.90;;
67514;SDS011;60646;55.802;37.032;2023-08-21T06:45:44;1.20;;;0.80;;
67514;SDS011;60646;55.802;37.032;2023-08-21T06:48:10;1.60;;;0.90;;
67514;SDS011;60646;55.802;37.032;2023-08-21T06:50:36;1.45;;;0.80;;
67514;SDS011;60646;55.802;37.032;2023-08-21T06:53:03;1.40;;;0.90;;
67514;SDS011;60646;55.802;37.032;2023-08-21T06:55:29;1.88;;;1.08;;
67514;SDS011;60646;55.802;37.032;2023-08-21T06:57:55;0.90;;;0.70;;
67514;SDS011;60646;55.802;37.032;2023-08-21T07:00:21;2.08;;;0.88;;
67514;SDS011;60646;55.802;37.032;2023-08-21T07:02:47;1.23;;;0.75;;
67514;SDS011;60646;55.802;37.032;2023-08-21T07:05:13;3.40;;;0.90;;
67514;SDS011;60646;55.802;37.032;2023-08-21T07:07:39;1.45;;;1.00;;
67514;SDS011;60646;55.802;37.032;2023-08-21T07:10:05;0.93;;;0.80;;
67514;SDS011;60646;55.802;37.032;2023-08-21T07:12:31;1.35;;;0.90;;
67514;SDS011;60646;55.802;37.032;2023-08-21T07:14:57;1.60;;;0.80;;
67514;SDS011;60646;55.802;37.032;2023-08-21T07:17:23;1.23;;;0.82;;
67514;SDS011;60646;55.802;37.032;2023-08-21T07:19:49;1.35;;;0.82;;
67514;SDS011;60646;55.802;37.032;2023-08-21T07:22:21;1.27;;;1.00;;
67514;SDS011;60646;55.802;37.032;2023-08-21T07:24:48;1.63;;;0.80;;
67514;SDS011;60646;55.802;37.032;2023-08-21T07:27:32;1.60;;;1.00;;
67514;SDS011;60646;55.802;37.032;2023-08-21T07:30:57;1.50;;;0.80;;
67514;SDS011;60646;55.802;37.032;2023-08-21T07:33:24;1.55;;;0.70;;
67514;SDS011;60646;55.802;37.032;2023-08-21T07:36:24;1.73;;;1.00;;
67514;SDS011;60646;55.802;37.032;2023-08-21T07:38:43;1.63;;;0.98;;
67514;SDS011;60646;55.802;37.032;2023-08-21T07:41:10;0.80;;;0.70;;
67514;SDS011;60646;55.802;37.032;2023-08-21T07:43:37;1.10;;;0.90;;
67514;SDS011;60646;55.802;37.032;2023-08-21T07:46:07;2.03;;;0.90;;
67514;SDS011;60646;55.802;37.032;2023-08-21T07:48:45;1.55;;;0.90;;
67514;SDS011;60646;55.802;37.032;2023-08-21T07:51:11;2.15;;;0.80;;
67514;SDS011;60646;55.802;37.032;2023-08-21T07:53:37;1.38;;;0.90;;
67514;SDS011;60646;55.802;37.032;2023-08-21T07:56:03;1.55;;;1.08;;
67514;SDS011;60646;55.802;37.032;2023-08-21T07:58:30;1.42;;;1.00;;
67514;SDS011;60646;55.802;37.032;2023-08-21T08:00:57;1.25;;;0.82;;
67514;SDS011;60646;55.802;37.032;2023-08-21T08:03:24;1.63;;;1.00;;
67514;SDS011;60646;55.802;37.032;2023-08-21T08:05:50;1.77;;;0.90;;
67514;SDS011;60646;55.802;37.032;2023-08-21T08:08:17;1.23;;;0.90;;
67514;SDS011;60646;55.802;37.032;2023-08-21T08:10:43;1.17;;;0.80;;
67514;SDS011;60646;55.802;37.032;2023-08-21T08:13:09;1.63;;;0.80;;
67514;SDS011;60646;55.802;37.032;2023-08-21T08:15:36;1.00;;;0.70;;
67514;SDS011;60646;55.802;37.032;2023-08-21T08:18:02;1.17;;;0.80;;
67514;SDS011;60646;55.802;37.032;2023-08-21T08:20:30;1.38;;;0.98;;
67514;SDS011;60646;55.802;37.032;2023-08-21T08:22:56;1.10;;;0.80;;
67514;SDS011;60646;55.802;37.032;2023-08-21T08:25:22;1.00;;;0.65;;
67514;SDS011;60646;55.802;37.032;2023-08-21T08:27:49;1.15;;;0.70;;
67514;SDS011;60646;55.802;37.032;2023-08-21T08:30:15;1.17;;;0.80;;
67514;SDS011;60646;55.802;37.032;2023-08-21T08:32:44;1.30;;;0.93;;
67514;SDS011;60646;55.802;37.032;2023-08-21T08:35:14;1.52;;;0.70;;
67514;SDS011;60646;55.802;37.032;2023-08-21T08:37:41;1.00;;;0.75;;
67514;SDS011;60646;55.802;37.032;2023-08-21T08:40:08;2.28;;;0.90;;
67514;SDS011;60646;55.802;37.032;2023-08-21T08:42:35;2.00;;;1.00;;
67514;SDS011;60646;55.802;37.032;2023-08-21T08:45:02;1.08;;;0.90;;
67514;SDS011;60646;55.802;37.032;2023-08-21T08:47:32;1.83;;;0.80;;
67514;SDS011;60646;55.802;37.032;2023-08-21T08:50:00;3.45;;;0.80;;
67514;SDS011;60646;55.802;37.032;2023-08-21T08:52:30;1.15;;;0.82;;
67514;SDS011;60646;55.802;37.032;2023-08-21T08:54:59;1.23;;;0.82;;
67514;SDS011;60646;55.802;37.032;2023-08-21T08:57:25;1.27;;;0.82;;
67514;SDS011;60646;55.802;37.032;2023-08-21T08:59:51;0.77;;;0.70;;
67514;SDS011;60646;55.802;37.032;2023-08-21T09:02:17;1.00;;;0.85;;
67514;SDS011;60646;55.802;37.032;2023-08-21T09:04:43;0.82;;;0.73;;
67514;SDS011;60646;55.802;37.032;2023-08-21T09:07:09;7.75;;;5.30;;
67514;SDS011;60646;55.802;37.032;2023-08-21T09:09:40;3.05;;;2.05;;
67514;SDS011;60646;55.802;37.032;2023-08-21T09:12:12;3.35;;;2.15;;
67514;SDS011;60646;55.802;37.032;2023-08-21T09:14:39;1.88;;;1.20;;
67514;SDS011;60646;55.802;37.032;2023-08-21T09:17:06;4.40;;;1.70;;
67514;SDS011;60646;55.802;37.032;2023-08-21T09:19:32;3.95;;;1.20;;
67514;SDS011;60646;55.802;37.032;2023-08-21T09:22:03;23.52;;;12.43;;
67514;SDS011;60646;55.802;37.032;2023-08-21T09:24:35;23.25;;;14.45;;
67514;SDS011;60646;55.802;37.032;2023-08-21T09:27:02;11.10;;;7.28;;
67514;SDS011;60646;55.802;37.032;2023-08-21T09:29:39;25.83;;;12.43;;
67514;SDS011;60646;55.802;37.032;2023-08-21T09:32:08;5.93;;;3.05;;
67514;SDS011;60646;55.802;37.032;2023-08-21T09:34:35;3.92;;;2.70;;
67514;SDS011;60646;55.802;37.032;2023-08-21T09:37:05;3.30;;;1.98;;
67514;SDS011;60646;55.802;37.032;2023-08-21T09:39:36;3.55;;;1.52;;
67514;SDS011;60646;55.802;37.032;2023-08-21T09:42:07;1.85;;;1.30;;
67514;SDS011;60646;55.802;37.032;2023-08-21T09:47:00;2.88;;;1.55;;
67514;SDS011;60646;55.802;37.032;2023-08-21T09:49:26;1.85;;;1.08;;
67514;SDS011;60646;55.802;37.032;2023-08-21T09:51:53;2.33;;;1.48;;
67514;SDS011;60646;55.802;37.032;2023-08-21T09:54:20;1.98;;;1.20;;
67514;SDS011;60646;55.802;37.032;2023-08-21T09:56:47;1.65;;;1.27;;
67514;SDS011;60646;55.802;37.032;2023-08-21T09:59:15;1.95;;;1.05;;
67514;SDS011;60646;55.802;37.032;2023-08-21T10:01:42;2.05;;;0.93;;
67514;SDS011;60646;55.802;37.032;2023-08-21T10:04:10;1.25;;;0.88;;
67514;SDS011;60646;55.802;37.032;2023-08-21T10:06:37;1.30;;;0.90;;
67514;SDS011;60646;55.802;37.032;2023-08-21T10:09:04;0.80;;;0.70;;
67514;SDS011;60646;55.802;37.032;2023-08-21T10:11:30;1.17;;;0.98;;
67514;SDS011;60646;55.802;37.032;2023-08-21T10:13:56;1.23;;;0.88;;
67514;SDS011;60646;55.802;37.032;2023-08-21T10:16:23;1.45;;;0.80;;
67514;SDS011;60646;55.802;37.032;2023-08-21T10:18:49;1.00;;;0.80;;
67514;SDS011;60646;55.802;37.032;2023-08-21T10:23:45;2.53;;;1.02;;
67514;SDS011;60646;55.802;37.032;2023-08-21T10:26:13;2.40;;;0.90;;
67514;SDS011;60646;55.802;37.032;2023-08-21T10:28:55;1.25;;;0.90;;
67514;SDS011;60646;55.802;37.032;2023-08-21T10:33:59;1.75;;;0.98;;
67514;SDS011;60646;55.802;37.032;2023-08-21T10:39:14;1.27;;;0.75;;
67514;SDS011;60646;55.802;37.032;2023-08-21T10:41:52;0.70;;;0.70;;
67514;SDS011;60646;55.802;37.032;2023-08-21T10:49:48;0.77;;;0.70;;
67514;SDS011;60646;55.802;37.032;2023-08-21T10:54:53;0.95;;;0.85;;
67514;SDS011;60646;55.802;37.032;2023-08-21T10:57:22;0.98;;;0.85;;
67514;SDS011;60646;55.802;37.032;2023-08-21T11:00:08;0.80;;;0.80;;
67514;SDS011;60646;55.802;37.032;2023-08-21T11:02:56;2.80;;;0.80;;
67514;SDS011;60646;55.802;37.032;2023-08-21T11:05:22;2.03;;;0.90;;
67514;SDS011;60646;55.802;37.032;2023-08-21T11:07:48;1.40;;;0.90;;
67514;SDS011;60646;55.802;37.032;2023-08-21T11:10:15;1.27;;;0.90;;
67514;SDS011;60646;55.802;37.032;2023-08-21T11:12:48;1.23;;;0.80;;
67514;SDS011;60646;55.802;37.032;2023-08-21T11:15:18;2.83;;;0.90;;
67514;SDS011;60646;55.802;37.032;2023-08-21T11:17:55;1.73;;;1.10;;
67514;SDS011;60646;55.802;37.032;2023-08-21T11:20:32;2.43;;;1.30;;
67514;SDS011;60646;55.802;37.032;2023-08-21T11:23:01;0.77;;;0.70;;
67514;SDS011;60646;55.802;37.032;2023-08-21T11:25:33;0.98;;;0.93;;
67514;SDS011;60646;55.802;37.032;2023-08-21T11:27:59;1.75;;;1.27;;
67514;SDS011;60646;55.802;37.032;2023-08-21T11:30:28;1.60;;;1.00;;
67514;SDS011;60646;55.802;37.032;2023-08-21T11:35:41;1.42;;;0.85;;
67514;SDS011;60646;55.802;37.032;2023-08-21T11:38:17;2.05;;;1.20;;
67514;SDS011;60646;55.802;37.032;2023-08-21T11:41:00;1.65;;;1.10;;
67514;SDS011;60646;55.802;37.032;2023-08-21T11:46:07;1.33;;;0.80;;
67514;SDS011;60646;55.802;37.032;2023-08-21T11:48:40;2.70;;;1.00;;
67514;SDS011;60646;55.802;37.032;2023-08-21T11:51:07;6.65;;;1.00;;
67514;SDS011;60646;55.802;37.032;2023-08-21T11:56:13;1.38;;;0.80;;
67514;SDS011;60646;55.802;37.032;2023-08-21T11:58:42;1.38;;;0.80;;
67514;SDS011;60646;55.802;37.032;2023-08-21T12:01:18;1.55;;;1.15;;
67514;SDS011;60646;55.802;37.032;2023-08-21T12:03:45;1.17;;;0.93;;
67514;SDS011;60646;55.802;37.032;2023-08-21T12:06:12;1.45;;;1.02;;
67514;SDS011;60646;55.802;37.032;2023-08-21T12:08:38;2.38;;;1.38;;
67514;SDS011;60646;55.802;37.032;2023-08-21T12:11:05;2.30;;;0.82;;
67514;SDS011;60646;55.802;37.032;2023-08-21T12:13:31;1.50;;;1.00;;
67514;SDS011;60646;55.802;37.032;2023-08-21T12:15:58;2.85;;;1.20;;
67514;SDS011;60646;55.802;37.032;2023-08-21T12:18:23;1.23;;;0.90;;
67514;SDS011;60646;55.802;37.032;2023-08-21T12:20:49;1.08;;;0.90;;
67514;SDS011;60646;55.802;37.032;2023-08-21T12:23:15;1.27;;;1.00;;
67514;SDS011;60646;55.802;37.032;2023-08-21T12:25:41;1.40;;;1.10;;
67514;SDS011;60646;55.802;37.032;2023-08-21T12:28:07;1.75;;;1.20;;
67514;SDS011;60646;55.802;37.032;2023-08-21T12:30:36;1.80;;;1.20;;
67514;SDS011;60646;55.802;37.032;2023-08-21T12:33:01;4.28;;;2.40;;
67514;SDS011;60646;55.802;37.032;2023-08-21T12:35:27;2.08;;;1.25;;
67514;SDS011;60646;55.802;37.032;2023-08-21T12:37:57;1.75;;;1.02;;
67514;SDS011;60646;55.802;37.032;2023-08-21T12:40:23;2.17;;;1.10;;
67514;SDS011;60646;55.802;37.032;2023-08-21T12:42:49;1.33;;;0.88;;
67514;SDS011;60646;55.802;37.032;2023-08-21T12:45:16;1.00;;;0.90;;
67514;SDS011;60646;55.802;37.032;2023-08-21T12:47:42;1.05;;;0.93;;
67514;SDS011;60646;55.802;37.032;2023-08-21T12:50:08;1.27;;;0.93;;
67514;SDS011;60646;55.802;37.032;2023-08-21T12:52:34;0.90;;;0.80;;
67514;SDS011;60646;55.802;37.032;2023-08-21T12:55:00;1.60;;;0.90;;
67514;SDS011;60646;55.802;37.032;2023-08-21T12:57:29;1.30;;;0.88;;
67514;SDS011;60646;55.802;37.032;2023-08-21T12:59:55;1.35;;;0.90;;
67514;SDS011;60646;55.802;37.032;2023-08-21T13:02:21;4.72;;;1.20;;
67514;SDS011;60646;55.802;37.032;2023-08-21T13:04:49;1.85;;;0.90;;
67514;SDS011;60646;55.802;37.032;2023-08-21T13:07:15;1.20;;;0.88;;
67514;SDS011;60646;55.802;37.032;2023-08-21T13:09:41;1.27;;;1.02;;
67514;SDS011;60646;55.802;37.032;2023-08-21T13:12:06;2.88;;;1.17;;
67514;SDS011;60646;55.802;37.032;2023-08-21T13:14:34;1.33;;;1.00;;
67514;SDS011;60646;55.802;37.032;2023-08-21T13:17:00;1.48;;;0.90;;
67514;SDS011;60646;55.802;37.032;2023-08-21T13:19:25;2.28;;;1.05;;
67514;SDS011;60646;55.802;37.032;2023-08-21T13:21:51;1.02;;;0.82;;
67514;SDS011;60646;55.802;37.032;2023-08-21T13:24:19;1.02;;;0.93;;
67514;SDS011;60646;55.802;37.032;2023-08-21T13:26:45;1.90;;;1.02;;
67514;SDS011;60646;55.802;37.032;2023-08-21T13:29:11;1.67;;;1.00;;
67514;SDS011;60646;55.802;37.032;2023-08-21T13:31:37;3.83;;;1.08;;
67514;SDS011;60646;55.802;37.032;2023-08-21T13:34:02;1.73;;;1.00;;
67514;SDS011;60646;55.802;37.032;2023-08-21T13:36:28;1.67;;;0.95;;
67514;SDS011;60646;55.802;37.032;2023-08-21T13:38:54;3.67;;;2.05;;
67514;SDS011;60646;55.802;37.032;2023-08-21T13:41:20;4.65;;;2.45;;
67514;SDS011;60646;55.802;37.032;2023-08-21T13:47:05;12.00;;;7.85;;
67514;SDS011;60646;55.802;37.032;2023-08-21T13:49:30;10.32;;;8.20;;
67514;SDS011;60646;55.802;37.032;2023-08-21T13:51:57;5.35;;;4.13;;
67514;SDS011;60646;55.802;37.032;2023-08-21T13:54:23;5.88;;;2.55;;
67514;SDS011;60646;55.802;37.032;2023-08-21T13:56:48;3.17;;;1.98;;
67514;SDS011;60646;55.802;37.032;2023-08-21T13:59:14;10.18;;;1.52;;
67514;SDS011;60646;55.802;37.032;2023-08-21T14:01:40;2.50;;;1.38;;
67514;SDS011;60646;55.802;37.032;2023-08-21T14:04:06;1.35;;;1.00;;
67514;SDS011;60646;55.802;37.032;2023-08-21T14:06:31;2.28;;;1.20;;
67514;SDS011;60646;55.802;37.032;2023-08-21T14:08:57;1.35;;;0.90;;
67514;SDS011;60646;55.802;37.032;2023-08-21T14:11:23;2.22;;;1.27;;
67514;SDS011;60646;55.802;37.032;2023-08-21T14:13:49;2.10;;;1.10;;
67514;SDS011;60646;55.802;37.032;2023-08-21T14:16:14;0.82;;;0.75;;
67514;SDS011;60646;55.802;37.032;2023-08-21T14:18:41;1.10;;;0.88;;
67514;SDS011;60646;55.802;37.032;2023-08-21T14:21:07;1.50;;;1.10;;
67514;SDS011;60646;55.802;37.032;2023-08-21T14:23:33;2.00;;;1.20;;
67514;SDS011;60646;55.802;37.032;2023-08-21T14:25:58;1.60;;;1.10;;
67514;SDS011;60646;55.802;37.032;2023-08-21T14:28:24;15.05;;;11.73;;
67514;SDS011;60646;55.802;37.032;2023-08-21T14:30:50;29.42;;;20.27;;
67514;SDS011;60646;55.802;37.032;2023-08-21T14:33:17;31.00;;;22.17;;
67514;SDS011;60646;55.802;37.032;2023-08-21T14:35:43;11.48;;;6.93;;
67514;SDS011;60646;55.802;37.032;2023-08-21T14:38:09;3.50;;;2.63;;
67514;SDS011;60646;55.802;37.032;2023-08-21T14:40:35;4.95;;;1.88;;
67514;SDS011;60646;55.802;37.032;2023-08-21T14:43:01;3.42;;;1.25;;
67514;SDS011;60646;55.802;37.032;2023-08-21T14:45:26;2.13;;;1.38;;
67514;SDS011;60646;55.802;37.032;2023-08-21T14:47:52;2.22;;;1.02;;
67514;SDS011;60646;55.802;37.032;2023-08-21T14:50:18;1.10;;;0.80;;
67514;SDS011;60646;55.802;37.032;2023-08-21T14:52:44;2.70;;;1.00;;
67514;SDS011;60646;55.802;37.032;2023-08-21T14:55:10;1.67;;;0.80;;
67514;SDS011;60646;55.802;37.032;2023-08-21T14:57:35;1.95;;;1.25;;
67514;SDS011;60646;55.802;37.032;2023-08-21T15:00:02;1.73;;;1.10;;
67514;SDS011;60646;55.802;37.032;2023-08-21T15:02:30;1.75;;;1.00;;
67514;SDS011;60646;55.802;37.032;2023-08-21T15:04:56;1.40;;;0.93;;
67514;SDS011;60646;55.802;37.032;2023-08-21T15:07:22;1.60;;;0.98;;
67514;SDS011;60646;55.802;37.032;2023-08-21T15:09:48;1.08;;;0.70;;
67514;SDS011;60646;55.802;37.032;2023-08-21T15:12:14;0.85;;;0.70;;